Flight Track Log - Related Links

Times and Time Zones

All times are in EDT time to prevent confusion due to time zone crossing. See the AMF701 flight status page for this flight to view local times or setup timezone preferences in your user account.

Time Position Orientation Groundspeed Altitude Reporting Facility
EDT Latitude Longitude Course Direction KTS MPH feet Rate Location/Type
Sat 05:47:09 PM 42.5000 -71.3000 345° North 141 162 1,900  Level KA90
Sat 05:48:09 PM 42.5333 -71.3333 324° Northwest 152 175 3,500 1,584 Climbing KA90
Sat 05:49:14 PM 42.5667 -71.3833 312° West 157 181 5,200 1,476 Climbing KA90
Sat 05:50:15 PM 42.6000 -71.4000 340° North 155 178 6,600 1,289 Climbing KA90
Sat 05:51:15 PM 42.6333 -71.4500 312° West 159 183 7,800 950 Climbing KA90
Sat 05:52:15 PM 42.6833 -71.4667 346° North 168 193 8,500 350 Climbing KA90
Sat 05:53:15 PM 42.7333 -71.4833 346° North 181 208 8,500  Level KA90
Sat 05:54:15 PM 42.7833 -71.5000 346° North 179 206 8,500  Level KA90
Sat 05:55:15 PM 42.8167 -71.5333 324° Northwest 177 204 8,500  Level KA90
Sat 05:56:15 PM 42.8667 -71.5833 324° Northwest 178 205 8,500  Level KA90
Sat 05:57:15 PM 42.9000 -71.6167 324° Northwest 182 209 8,500  Level KA90
Sat 05:58:15 PM 42.9500 -71.6667 324° Northwest 186 214 8,500  Level KA90
Sat 05:59:15 PM 42.9833 -71.7000 324° Northwest 187 215 8,500  Level KA90
Sat 06:00:15 PM 43.0333 -71.7500 324° Northwest 188 216 8,500  Level KA90
Sat 06:01:15 PM 43.0667 -71.7833 324° Northwest 187 215 8,500  Level KA90
Sat 06:02:35 PM 43.1267 -71.8381 326° Northwest 187 215 8,500  Level Boston Center
Sat 06:03:36 PM 43.1689 -71.8783 325° Northwest 186 214 8,500  Level Boston Center
Sat 06:04:37 PM 43.2106 -71.9200 324° Northwest 186 214 8,500  Level Boston Center
Sat 06:05:37 PM 43.2550 -71.9636 324° Northwest 184 212 8,500  Level Boston Center
Sat 06:06:41 PM 43.2972 -72.0042 325° Northwest 185 213 8,500  Level Boston Center
Sat 06:07:41 PM 43.3389 -72.0456 324° Northwest 184 212 8,500  Level Boston Center
Sat 06:08:42 PM 43.3844 -72.0906 324° Northwest 188 216 8,500  Level Boston Center
Sat 06:09:43 PM 43.4267 -72.1308 325° Northwest 191 220 8,500  Level Boston Center
Sat 06:10:44 PM 43.4678 -72.1722 324° Northwest 186 214 8,500  Level Boston Center
Sat 06:11:48 PM 43.5122 -72.2100 328° Northwest 187 215 8,500  Level Boston Center
Sat 06:12:48 PM 43.5550 -72.2503 326° Northwest 187 215 8,500  Level Boston Center
Sat 06:13:50 PM 43.5964 -72.2917 324° Northwest 185 213 8,500  Level Boston Center
Sat 06:14:50 PM 43.6406 -72.3325 326° Northwest 187 215 8,500  Level Boston Center
Sat 06:15:51 PM 43.6825 -72.3744 324° Northwest 188 216 8,500  Level Boston Center
Sat 06:16:55 PM 43.7333 -72.4225 326° Northwest 186 214 8,500  Level Boston Center
Sat 06:17:56 PM 43.7750 -72.4628 325° Northwest 183 211 8,500  Level Boston Center
Sat 06:18:57 PM 43.8158 -72.5047 323° Northwest 182 209 8,500  Level Boston Center
Sat 06:19:57 PM 43.8581 -72.5439 326° Northwest 182 209 8,500  Level Boston Center
Sat 06:21:01 PM 43.8992 -72.5844 325° Northwest 182 209 8,500 48 Level Boston Center
Sat 06:22:01 PM 43.9444 -72.6306 324° Northwest 186 214 8,600  Climbing Boston Center
Sat 06:23:03 PM 43.9900 -72.6756 325° Northwest 187 215 8,500 -49 Descending Boston Center
Sat 06:24:04 PM 44.0314 -72.7161 325° Northwest 185 213 8,500  Level Boston Center
Sat 06:25:05 PM 44.0769 -72.7611 325° Northwest 187 215 8,500  Level Boston Center
Sat 06:26:06 PM 44.1189 -72.8017 325° Northwest 185 213 8,500 -149 Level Boston Center
Sat 06:27:06 PM 44.1603 -72.8422 325° Northwest 185 213 8,200 -484 Descending Boston Center
Sat 06:28:10 PM 44.2058 -72.8867 325° Northwest 186 214 7,500 -677 Descending Boston Center
Sat 06:29:10 PM 44.2469 -72.9281 324° Northwest 185 213 6,800 -600 Descending Boston Center
Sat 06:30:10 PM 44.2933 -72.9722 326° Northwest 187 215 6,300 -496 Descending Boston Center
Sat 06:31:11 PM 44.3336 -73.0139 324° Northwest 184 212 5,800 -480 Descending Boston Center
Sat 06:32:15 PM 44.3742 -73.0536 325° Northwest 183 211 5,300 -528 Descending Boston Center
Sat 06:33:16 PM 44.4144 -73.1036 318° Northwest 182 209 4,700 -492 Descending Boston Center
Sat 06:34:17 PM 44.4561 -73.1394 328° Northwest 183 211 4,300 -492 Descending Boston Center
Sat 06:35:18 PM 44.4944 -73.1817 322° Northwest 187 215 3,700 -629 Descending Boston Center
Sat 06:36:21 PM 44.5275 -73.2456 306° West 188 216 3,000 -677 Descending Boston Center
Sat 06:37:22 PM 44.5581 -73.3036 306° West 188 216 2,300 -393 Descending Boston Center
Sat 06:38:23 PM 44.5842 -73.3531 307° West 188 216 2,200 -98 Descending Boston Center

Login

Don't have an account? Register now (free) for customized features, flight alerts, and more!